createdAt,value
2018-09-27T00:00:52.601Z,101254.62
2018-09-27T00:03:20.768Z,101245.30
2018-09-27T00:05:48.939Z,101249.16
2018-09-27T00:08:16.903Z,101254.84
2018-09-27T00:10:44.977Z,101260.86
2018-09-27T00:13:13.244Z,101253.47
2018-09-27T00:15:41.756Z,101257.34
2018-09-27T00:18:09.563Z,101248.02
2018-09-27T00:20:37.660Z,101241.11
2018-09-27T00:23:05.944Z,101236.53
2018-09-27T00:25:33.987Z,101246.39
2018-09-27T00:28:01.883Z,101240.41
2018-09-27T00:30:30.052Z,101234.77
2018-09-27T00:32:58.220Z,101238.45
2018-09-27T00:35:26.395Z,101232.92
2018-09-27T00:37:54.418Z,101231.97
2018-09-27T00:40:22.536Z,101220.95
2018-09-27T00:42:50.241Z,101224.63
2018-09-27T00:45:18.471Z,101215.59
2018-09-27T00:47:46.644Z,101215.83
2018-09-27T00:50:14.813Z,101213.48
2018-09-27T00:52:42.999Z,101205.33
2018-09-27T00:55:11.499Z,101201.76
2018-09-27T00:57:39.208Z,101202.70
2018-09-27T01:00:07.823Z,101200.82
2018-09-27T01:02:35.537Z,101201.44
2018-09-27T01:05:03.856Z,101199.00
2018-09-27T01:07:32.027Z,101189.11
2018-09-27T01:10:00.060Z,101186.14
2018-09-27T01:12:28.170Z,101186.73
2018-09-27T01:14:56.288Z,101182.18
2018-09-27T01:17:24.007Z,101177.53
2018-09-27T01:19:52.175Z,101175.47
2018-09-27T01:22:20.347Z,101168.77
2018-09-27T01:24:48.527Z,101172.77
2018-09-27T01:27:16.631Z,101173.18
2018-09-27T01:29:44.759Z,101172.39
2018-09-27T01:32:12.889Z,101171.01
2018-09-27T01:34:41.112Z,101169.76
2018-09-27T01:37:09.286Z,101168.94
2018-09-27T01:39:37.452Z,101172.13
2018-09-27T01:42:05.631Z,101164.48
2018-09-27T01:44:33.804Z,101166.62
2018-09-27T01:47:02.002Z,101164.70
2018-09-27T01:49:30.246Z,101161.23
2018-09-27T01:51:58.428Z,101153.30
2018-09-27T01:54:26.388Z,101148.41
2018-09-27T01:56:54.083Z,101156.81
2018-09-27T01:59:22.431Z,101152.62
2018-09-27T02:01:50.595Z,101157.67
2018-09-27T02:04:18.586Z,101158.69
2018-09-27T02:06:46.792Z,101157.92
2018-09-27T02:09:14.920Z,101158.05
2018-09-27T02:11:43.083Z,101153.89
2018-09-27T02:14:11.267Z,101159.17
2018-09-27T02:16:39.643Z,101160.55
2018-09-27T02:19:07.817Z,101157.22
2018-09-27T02:21:35.983Z,101156.92
2018-09-27T02:24:04.139Z,101157.12
2018-09-27T02:26:32.127Z,101152.34
2018-09-27T02:29:00.299Z,101150.10
2018-09-27T02:31:28.568Z,101156.11
2018-09-27T02:33:56.863Z,101151.66
2018-09-27T02:36:25.021Z,101154.41
2018-09-27T02:38:53.300Z,101146.98
2018-09-27T02:41:21.567Z,101145.78
2018-09-27T02:43:49.748Z,101146.97
2018-09-27T02:46:17.812Z,101140.51
2018-09-27T02:48:45.784Z,101142.21
2018-09-27T02:51:13.952Z,101146.89
2018-09-27T02:53:42.131Z,101141.70
2018-09-27T02:56:10.296Z,101141.63
2018-09-27T02:58:38.167Z,101139.88
2018-09-27T03:01:06.344Z,101146.16
2018-09-27T03:03:34.516Z,101146.97
2018-09-27T03:06:02.792Z,101139.05
2018-09-27T03:08:30.860Z,101140.45
2018-09-27T03:10:59.031Z,101138.25
2018-09-27T03:13:27.230Z,101133.83
2018-09-27T03:15:55.276Z,101138.94
2018-09-27T03:18:23.452Z,101141.75
2018-09-27T03:20:51.531Z,101135.80
2018-09-27T03:23:19.691Z,101131.75
2018-09-27T03:25:47.859Z,101135.31
2018-09-27T03:28:16.040Z,101137.00
2018-09-27T03:30:43.740Z,101132.94
2018-09-27T03:33:11.871Z,101136.33
2018-09-27T03:35:40.044Z,101138.69
2018-09-27T03:38:07.744Z,101132.02
2018-09-27T03:40:35.969Z,101127.98
2018-09-27T03:43:03.952Z,101127.05
2018-09-27T03:45:32.016Z,101132.02
2018-09-27T03:48:00.097Z,101131.17
2018-09-27T03:50:28.259Z,101135.25
2018-09-27T03:52:56.335Z,101130.61
2018-09-27T03:55:24.510Z,101128.91
2018-09-27T03:57:52.684Z,101118.70
2018-09-27T04:00:20.852Z,101122.59
2018-09-27T04:02:49.245Z,101110.20
2018-09-27T04:05:17.304Z,101118.02
2018-09-27T04:07:45.469Z,101124.61
2018-09-27T04:10:13.539Z,101125.28
2018-09-27T04:12:41.267Z,101119.54
2018-09-27T04:15:09.372Z,101121.34
2018-09-27T04:17:37.447Z,101129.66
2018-09-27T04:20:05.828Z,101127.03
2018-09-27T04:22:33.999Z,101125.06
2018-09-27T04:25:02.175Z,101128.11
2018-09-27T04:27:30.356Z,101122.01
2018-09-27T04:29:58.096Z,101124.53
2018-09-27T04:32:26.389Z,101120.47
2018-09-27T04:34:54.447Z,101122.27
2018-09-27T04:37:22.427Z,101122.66
2018-09-27T04:39:50.608Z,101125.02
2018-09-27T04:42:18.652Z,101130.25
2018-09-27T04:44:46.844Z,101123.80
2018-09-27T04:47:14.908Z,101124.89
2018-09-27T04:49:43.084Z,101125.17
2018-09-27T04:52:11.251Z,101125.41
2018-09-27T04:54:39.324Z,101118.27
2018-09-27T04:57:07.500Z,101131.41
2018-09-27T04:59:35.568Z,101133.56
2018-09-27T05:02:03.295Z,101133.17
2018-09-27T05:04:31.404Z,101136.56
2018-09-27T05:06:59.571Z,101146.53
2018-09-27T05:09:27.780Z,101144.45
2018-09-27T05:11:55.911Z,101144.47
2018-09-27T05:14:23.626Z,101134.12
2018-09-27T05:16:51.807Z,101126.80
2018-09-27T05:19:19.823Z,101135.52
2018-09-27T05:21:48.001Z,101141.77
2018-09-27T05:24:16.216Z,101144.48
2018-09-27T05:26:44.492Z,101141.02
2018-09-27T05:29:12.624Z,101138.59
2018-09-27T05:31:40.889Z,101144.52
2018-09-27T05:34:09.068Z,101138.52
2018-09-27T05:36:37.243Z,101142.92
2018-09-27T05:39:06.700Z,101144.34
2018-09-27T05:41:34.714Z,101141.03
2018-09-27T05:44:02.876Z,101144.84
2018-09-27T05:46:30.959Z,101157.94
2018-09-27T05:48:59.351Z,101156.33
2018-09-27T05:51:27.497Z,101162.36
2018-09-27T05:53:55.467Z,101163.33
2018-09-27T05:56:23.544Z,101146.79
2018-09-27T05:58:51.707Z,101149.77
2018-09-27T06:01:19.995Z,101161.06
2018-09-27T06:03:48.063Z,101170.03
2018-09-27T06:06:16.235Z,101168.72
2018-09-27T06:08:44.403Z,101161.00
2018-09-27T06:11:12.582Z,101156.86
2018-09-27T06:13:40.680Z,101163.27
2018-09-27T06:16:08.720Z,101172.76
2018-09-27T06:18:37.171Z,101166.63
2018-09-27T06:21:05.466Z,101164.77
2018-09-27T06:23:33.400Z,101167.62
2018-09-27T06:26:01.356Z,101156.71
2018-09-27T06:28:29.479Z,101161.95
2018-09-27T06:30:57.659Z,101167.83
2018-09-27T06:33:25.415Z,101161.59
2018-09-27T06:35:53.473Z,101160.52
2018-09-27T06:38:21.653Z,101158.87
2018-09-27T06:40:49.359Z,101163.50
2018-09-27T06:43:17.496Z,101162.53
2018-09-27T06:45:45.558Z,101168.65
2018-09-27T06:48:13.604Z,101173.13
2018-09-27T06:50:41.814Z,101169.88
2018-09-27T06:53:09.890Z,101174.84
2018-09-27T06:55:38.111Z,101173.07
2018-09-27T06:58:06.329Z,101162.90
2018-09-27T07:00:34.599Z,101167.12
2018-09-27T07:03:02.680Z,101158.56
2018-09-27T07:05:30.774Z,101172.69
2018-09-27T07:07:59.251Z,101173.45
2018-09-27T07:10:27.432Z,101183.36
2018-09-27T07:12:55.673Z,101168.50
2018-09-27T07:15:24.680Z,101174.78
2018-09-27T07:17:56.013Z,101167.87
2018-09-27T07:20:24.729Z,101170.00
2018-09-27T07:22:52.774Z,101158.25
2018-09-27T07:25:21.139Z,101163.37
2018-09-27T07:27:49.106Z,101160.59
2018-09-27T07:30:17.278Z,101137.39
2018-09-27T07:32:45.561Z,101143.30
2018-09-27T07:35:13.777Z,101143.59
2018-09-27T07:37:41.665Z,101145.08
2018-09-27T07:40:09.865Z,101135.12
2018-09-27T07:42:38.083Z,101132.63
2018-09-27T07:45:06.335Z,101136.03
2018-09-27T07:47:34.191Z,101132.06
2018-09-27T07:50:02.400Z,101131.98
2018-09-27T07:52:30.544Z,101126.39
2018-09-27T07:54:58.268Z,101127.81
2018-09-27T07:57:26.180Z,101127.16
2018-09-27T07:59:54.439Z,101122.62
2018-09-27T08:02:22.653Z,101120.55
2018-09-27T08:04:50.788Z,101127.44
2018-09-27T08:07:19.062Z,101126.41
2018-09-27T08:09:47.244Z,101119.44
2018-09-27T08:12:15.503Z,101111.12
2018-09-27T08:14:43.800Z,101110.80
2018-09-27T08:17:11.909Z,101095.88
2018-09-27T08:19:39.763Z,101099.67
2018-09-27T08:22:07.494Z,101110.64
2018-09-27T08:24:35.238Z,101109.05
2018-09-27T08:27:02.960Z,101101.45
2018-09-27T08:29:30.654Z,101111.45
2018-09-27T08:31:58.379Z,101103.64
2018-09-27T08:34:26.092Z,101098.59
2018-09-27T08:36:54.231Z,101098.97
2018-09-27T08:39:22.325Z,101099.86
2018-09-27T08:41:50.200Z,101094.73
2018-09-27T08:44:17.935Z,101079.08
2018-09-27T08:46:45.658Z,101072.53
2018-09-27T08:49:13.390Z,101072.72
2018-09-27T08:51:41.619Z,101073.97
2018-09-27T08:54:09.625Z,101072.05
2018-09-27T08:56:38.419Z,101056.55
2018-09-27T08:59:06.818Z,101057.44
2018-09-27T09:01:34.702Z,101064.20
2018-09-27T09:04:02.974Z,101053.87
2018-09-27T09:06:31.123Z,101049.77
2018-09-27T09:08:59.439Z,101049.09
2018-09-27T09:11:29.115Z,101050.14
2018-09-27T09:13:57.151Z,101043.92
2018-09-27T09:16:25.322Z,101039.89
2018-09-27T09:18:53.612Z,101045.56
2018-09-27T09:21:21.864Z,101045.20
2018-09-27T09:23:50.054Z,101026.95
2018-09-27T09:26:18.273Z,101023.23
2018-09-27T09:28:46.020Z,101015.36
2018-09-27T09:31:13.914Z,101029.92
2018-09-27T09:33:41.677Z,101036.05
2018-09-27T09:36:09.398Z,101030.87
2018-09-27T09:38:37.139Z,101016.91
2018-09-27T09:41:04.886Z,101027.53
2018-09-27T09:43:32.628Z,101019.09
2018-09-27T09:46:00.840Z,101015.44
2018-09-27T09:48:28.946Z,101020.27
2018-09-27T09:50:57.096Z,101011.68
2018-09-27T09:53:25.253Z,100993.95
2018-09-27T09:55:53.440Z,101003.23
2018-09-27T09:58:21.607Z,101008.70
2018-09-27T10:00:49.793Z,101000.50
2018-09-27T10:03:17.964Z,100989.88
2018-09-27T10:05:45.826Z,100998.87
2018-09-27T10:08:14.086Z,101000.44
2018-09-27T10:10:42.259Z,100985.70
2018-09-27T10:13:10.431Z,100977.33
2018-09-27T10:15:38.721Z,100988.83
2018-09-27T10:18:06.599Z,100984.17
2018-09-27T10:20:34.758Z,100971.60
2018-09-27T10:23:02.928Z,100975.03
2018-09-27T10:25:31.098Z,100972.37
2018-09-27T10:27:59.087Z,100969.89
2018-09-27T10:30:27.248Z,100960.19
2018-09-27T10:32:55.333Z,100956.47
2018-09-27T10:35:23.613Z,100963.11
2018-09-27T10:37:51.356Z,100955.48
2018-09-27T10:40:19.073Z,100954.89
2018-09-27T10:42:47.114Z,100945.84
2018-09-27T10:45:14.851Z,100950.17
2018-09-27T10:47:42.790Z,100949.10
2018-09-27T10:50:10.658Z,100941.59
2018-09-27T10:52:38.747Z,100933.62
2018-09-27T10:55:07.125Z,100934.22
2018-09-27T10:57:35.306Z,100926.83
2018-09-27T11:00:03.583Z,100917.16
2018-09-27T11:02:31.637Z,100910.50
2018-09-27T11:04:59.921Z,100906.53
2018-09-27T11:07:37.340Z,100902.25
2018-09-27T11:10:12.918Z,100896.78
2018-09-27T11:12:48.255Z,100904.44
2018-09-27T11:15:20.646Z,100891.33
2018-09-27T11:17:53.591Z,100877.52
2018-09-27T11:20:33.901Z,100882.07
2018-09-27T11:23:02.225Z,100882.09
2018-09-27T11:25:30.379Z,100872.80
2018-09-27T11:27:58.978Z,100871.05
2018-09-27T11:30:31.167Z,100870.67
2018-09-27T11:32:59.973Z,100859.12
2018-09-27T11:35:28.010Z,100854.86
2018-09-27T11:37:56.006Z,100859.16
2018-09-27T11:40:24.457Z,100864.47
2018-09-27T11:42:52.775Z,100851.92
2018-09-27T11:45:20.863Z,100849.92
2018-09-27T11:47:48.974Z,100843.63
2018-09-27T11:50:16.771Z,100847.34
2018-09-27T11:52:44.871Z,100829.46
2018-09-27T11:55:13.106Z,100842.19
2018-09-27T11:57:41.202Z,100826.72
2018-09-27T12:00:09.354Z,100820.36
2018-09-27T12:02:43.806Z,100820.27
2018-09-27T12:05:17.580Z,100820.29
2018-09-27T12:07:51.373Z,100823.81
2018-09-27T12:10:25.728Z,100817.91
2018-09-27T12:13:00.822Z,100813.92
2018-09-27T12:15:34.981Z,100806.23
2018-09-27T12:18:09.299Z,100807.27
2018-09-27T12:20:43.626Z,100806.52
2018-09-27T12:23:18.134Z,100798.81
2018-09-27T12:25:52.419Z,100795.98
2018-09-27T12:28:26.915Z,100794.08
2018-09-27T12:31:03.160Z,100789.41
2018-09-27T12:33:46.472Z,100786.73
2018-09-27T12:36:14.694Z,100785.69
2018-09-27T12:38:42.789Z,100774.19
2018-09-27T12:41:10.874Z,100765.08
2018-09-27T12:43:39.015Z,100776.00
2018-09-27T12:46:07.720Z,100773.14
2018-09-27T12:48:35.464Z,100770.22
2018-09-27T12:51:03.266Z,100771.16
2018-09-27T12:53:31.230Z,100764.50
2018-09-27T12:56:02.160Z,100768.67
2018-09-27T12:58:35.809Z,100761.06
2018-09-27T13:01:07.927Z,100759.53
2018-09-27T13:03:37.331Z,100759.64
2018-09-27T13:06:05.534Z,100757.37
2018-09-27T13:08:33.590Z,100754.98
2018-09-27T13:11:01.866Z,100759.08
2018-09-27T13:13:30.051Z,100752.81
2018-09-27T13:15:58.159Z,100746.80
2018-09-27T13:18:26.268Z,100750.59
2018-09-27T13:20:53.999Z,100759.06
2018-09-27T13:23:22.106Z,100745.53
2018-09-27T13:28:52.791Z,100743.63
2018-09-27T13:31:20.587Z,100746.03
2018-09-27T13:33:48.529Z,100744.78
2018-09-27T13:36:16.328Z,100742.12
2018-09-27T13:38:44.266Z,100737.84
2018-09-27T13:41:12.030Z,100730.73
2018-09-27T13:43:39.738Z,100728.05
2018-09-27T13:46:07.594Z,100728.89
2018-09-27T13:48:35.406Z,100736.60
2018-09-27T13:51:03.226Z,100724.03
2018-09-27T13:53:30.937Z,100723.30
2018-09-27T13:55:58.671Z,100723.20
2018-09-27T13:58:26.390Z,100719.95
2018-09-27T14:00:54.203Z,100712.73
2018-09-27T14:03:21.960Z,100715.98
2018-09-27T14:05:49.699Z,100708.96
2018-09-27T14:08:17.479Z,100709.41
2018-09-27T14:10:45.219Z,100708.19
2018-09-27T14:13:12.930Z,100700.72
2018-09-27T14:15:40.674Z,100699.04
2018-09-27T14:18:08.613Z,100688.06
2018-09-27T14:20:36.630Z,100689.38
2018-09-27T14:23:04.422Z,100677.42
2018-09-27T14:25:32.181Z,100686.69
2018-09-27T14:27:59.895Z,100687.64
2018-09-27T14:30:27.697Z,100685.06
2018-09-27T14:32:55.449Z,100682.72
2018-09-27T14:35:23.218Z,100674.67
2018-09-27T14:37:50.970Z,100684.67
2018-09-27T14:40:18.689Z,100678.53
2018-09-27T14:42:46.510Z,100679.87
2018-09-27T14:45:14.214Z,100679.28
2018-09-27T14:47:42.074Z,100677.66
2018-09-27T14:50:09.804Z,100679.68
2018-09-27T14:52:37.490Z,100679.09
2018-09-27T14:55:05.332Z,100679.45
2018-09-27T14:57:33.003Z,100675.46
2018-09-27T15:00:00.693Z,100676.81
2018-09-27T15:07:46.704Z,100677.20
2018-09-27T15:10:14.755Z,100671.00
2018-09-27T15:12:42.797Z,100675.48
2018-09-27T15:15:10.849Z,100680.41
2018-09-27T15:17:39.089Z,100673.66
2018-09-27T15:20:07.276Z,100673.36
2018-09-27T15:22:35.355Z,100666.53
2018-09-27T15:25:03.346Z,100673.30
2018-09-27T15:27:31.300Z,100678.42
2018-09-27T15:29:59.264Z,100674.86
2018-09-27T15:32:27.185Z,100679.16
2018-09-27T15:34:55.244Z,100673.23
2018-09-27T15:37:23.195Z,100674.66
2018-09-27T15:39:51.184Z,100665.44
2018-09-27T15:42:19.144Z,100667.78
2018-09-27T15:44:47.132Z,100662.59
2018-09-27T15:47:15.077Z,100666.58
2018-09-27T15:49:43.045Z,100664.36
2018-09-27T15:52:10.981Z,100662.05
2018-09-27T15:54:38.915Z,100663.89
2018-09-27T15:57:06.964Z,100657.77
2018-09-27T15:59:35.019Z,100656.36
2018-09-27T16:02:03.072Z,100649.66
2018-09-27T16:04:31.009Z,100650.45
2018-09-27T16:06:58.949Z,100655.36
2018-09-27T16:09:26.896Z,100654.45
2018-09-27T16:11:54.860Z,100655.14
2018-09-27T16:14:23.693Z,100655.29
2018-09-27T16:16:51.646Z,100659.83
2018-09-27T16:19:19.585Z,100659.33
2018-09-27T16:21:47.603Z,100658.47
2018-09-27T16:24:15.557Z,100666.20
2018-09-27T16:26:43.561Z,100669.28
2018-09-27T16:29:11.669Z,100666.47
2018-09-27T16:31:39.649Z,100671.67
2018-09-27T16:34:07.740Z,100670.75
2018-09-27T16:36:35.933Z,100673.05
2018-09-27T16:39:05.477Z,100669.20
2018-09-27T16:41:33.538Z,100667.19
2018-09-27T16:44:01.478Z,100671.66
2018-09-27T16:46:29.480Z,100669.34
2018-09-27T16:48:57.445Z,100667.61
2018-09-27T16:51:25.421Z,100673.77
2018-09-27T16:53:53.493Z,100675.16
2018-09-27T16:56:21.533Z,100677.19
2018-09-27T16:58:49.477Z,100684.19
2018-09-27T17:01:17.416Z,100677.29
2018-09-27T17:03:45.874Z,100678.52
2018-09-27T17:06:13.818Z,100685.34
2018-09-27T17:08:41.753Z,100685.80
2018-09-27T17:11:09.809Z,100679.53
2018-09-27T17:13:37.816Z,100674.11
2018-09-27T17:16:05.773Z,100686.45
2018-09-27T17:18:33.785Z,100683.63
2018-09-27T17:21:01.752Z,100679.34
2018-09-27T17:23:29.766Z,100688.07
2018-09-27T17:25:57.784Z,100689.56
2018-09-27T17:28:25.740Z,100692.67
2018-09-27T17:30:53.699Z,100691.42
2018-09-27T17:33:21.630Z,100689.62
2018-09-27T17:35:49.574Z,100691.80
2018-09-27T17:38:17.842Z,100695.94
2018-09-27T17:40:46.615Z,100707.42
2018-09-27T17:43:14.623Z,100708.91
2018-09-27T17:45:42.566Z,100716.66
2018-09-27T17:48:10.504Z,100718.86
2018-09-27T17:50:38.478Z,100723.34
2018-09-27T17:53:06.515Z,100727.77
2018-09-27T17:55:34.582Z,100724.06
2018-09-27T17:58:02.599Z,100729.42
2018-09-27T18:00:30.572Z,100726.98
2018-09-27T18:02:58.507Z,100729.20
2018-09-27T18:05:26.371Z,100722.48
2018-09-27T18:07:54.193Z,100724.33
2018-09-27T18:10:23.498Z,100725.37
2018-09-27T18:12:51.315Z,100729.44
2018-09-27T18:15:19.075Z,100737.36
2018-09-27T18:17:46.916Z,100738.11
2018-09-27T18:20:14.671Z,100743.41
2018-09-27T18:22:42.467Z,100741.44
2018-09-27T18:25:10.226Z,100747.29
2018-09-27T18:27:38.013Z,100744.50
2018-09-27T18:30:05.843Z,100747.55
2018-09-27T18:32:33.561Z,100746.09
2018-09-27T18:35:01.267Z,100748.73
2018-09-27T18:37:29.518Z,100753.58
2018-09-27T18:39:57.263Z,100751.31
2018-09-27T18:42:24.970Z,100756.05
2018-09-27T18:44:52.689Z,100761.98
2018-09-27T18:47:20.547Z,100757.03
2018-09-27T18:49:48.274Z,100755.86
2018-09-27T18:52:16.344Z,100753.87
2018-09-27T18:54:44.070Z,100745.50
2018-09-27T18:57:11.914Z,100738.17
2018-09-27T18:59:39.666Z,100742.06
2018-09-27T19:02:07.576Z,100741.34
2018-09-27T19:04:35.289Z,100742.91
2018-09-27T19:07:03.181Z,100745.25
2018-09-27T19:09:30.938Z,100744.69
2018-09-27T19:11:58.675Z,100741.97
2018-09-27T19:14:26.479Z,100746.53
2018-09-27T19:16:54.315Z,100739.73
2018-09-27T19:19:21.950Z,100741.08
2018-09-27T19:21:50.046Z,100737.47
2018-09-27T19:24:17.750Z,100729.73
2018-09-27T19:26:45.498Z,100729.14
2018-09-27T19:29:13.546Z,100726.08
2018-09-27T19:31:41.274Z,100724.94
2018-09-27T19:34:10.036Z,100725.12
2018-09-27T19:36:37.874Z,100726.14
2018-09-27T19:39:07.482Z,100723.74
2018-09-27T19:41:35.241Z,100723.37
2018-09-27T19:44:02.997Z,100722.58
2018-09-27T19:46:30.712Z,100727.88
2018-09-27T19:48:58.457Z,100726.58
2018-09-27T19:51:26.190Z,100725.64
2018-09-27T19:53:53.987Z,100721.57
2018-09-27T19:56:21.754Z,100718.69
2018-09-27T19:58:49.457Z,100725.69
2018-09-27T20:01:17.223Z,100723.65
2018-09-27T20:03:44.983Z,100723.12
2018-09-27T20:06:12.753Z,100722.43
2018-09-27T20:08:40.563Z,100721.91
2018-09-27T20:11:08.330Z,100721.98
2018-09-27T20:13:36.389Z,100723.23
2018-09-27T20:16:04.236Z,100719.56
2018-09-27T20:18:31.946Z,100722.09
2018-09-27T20:20:59.658Z,100730.97
2018-09-27T20:23:27.381Z,100726.91
2018-09-27T20:25:55.141Z,100725.52
2018-09-27T20:28:22.893Z,100727.85
2018-09-27T20:30:50.825Z,100733.14
2018-09-27T20:33:18.599Z,100733.19
2018-09-27T20:35:46.309Z,100736.68
2018-09-27T20:38:14.034Z,100729.33
2018-09-27T20:40:41.766Z,100733.59
2018-09-27T20:43:09.543Z,100728.77
2018-09-27T20:45:37.452Z,100733.84
2018-09-27T20:48:05.347Z,100740.03
2018-09-27T20:50:33.306Z,100735.67
2018-09-27T20:53:01.023Z,100730.90
2018-09-27T20:55:28.794Z,100725.48
2018-09-27T20:57:56.610Z,100724.77
2018-09-27T21:00:24.318Z,100724.80
2018-09-27T21:02:52.042Z,100729.90
2018-09-27T21:05:19.759Z,100721.53
2018-09-27T21:07:47.450Z,100718.22
2018-09-27T21:10:16.084Z,100722.63
2018-09-27T21:12:43.765Z,100723.94
2018-09-27T21:15:11.441Z,100720.28
2018-09-27T21:17:42.142Z,100721.91
2018-09-27T21:20:09.874Z,100717.55
2018-09-27T21:22:37.564Z,100729.80
2018-09-27T21:25:05.278Z,100720.02
2018-09-27T21:27:33.010Z,100729.89
2018-09-27T21:30:00.691Z,100721.90
2018-09-27T21:32:28.377Z,100721.73
2018-09-27T21:34:56.072Z,100721.45
2018-09-27T21:37:23.790Z,100717.09
2018-09-27T21:39:51.470Z,100718.41
2018-09-27T21:42:19.154Z,100716.84
2018-09-27T21:44:46.875Z,100716.27
2018-09-27T21:47:14.584Z,100717.89
2018-09-27T21:49:42.359Z,100720.95
2018-09-27T21:52:10.226Z,100711.73
2018-09-27T21:54:37.902Z,100710.36
2018-09-27T21:57:05.627Z,100718.44
2018-09-27T21:59:33.342Z,100708.73
2018-09-27T22:02:01.039Z,100713.94
2018-09-27T22:04:28.730Z,100714.05
2018-09-27T22:06:56.405Z,100710.66
2018-09-27T22:09:24.089Z,100705.08
2018-09-27T22:11:51.774Z,100696.75
2018-09-27T22:14:19.450Z,100705.69
2018-09-27T22:16:47.541Z,100707.52
2018-09-27T22:19:15.226Z,100702.73
2018-09-27T22:21:42.902Z,100700.36
2018-09-27T22:24:10.599Z,100697.83
2018-09-27T22:26:38.286Z,100693.70
2018-09-27T22:29:06.090Z,100691.53
2018-09-27T22:31:33.786Z,100696.11
2018-09-27T22:34:01.560Z,100695.63
2018-09-27T22:36:29.256Z,100694.42
2018-09-27T22:38:56.927Z,100694.47
2018-09-27T22:41:24.974Z,100688.20
2018-09-27T22:43:52.661Z,100687.39
2018-09-27T22:46:20.365Z,100684.45
2018-09-27T22:48:48.044Z,100684.63
2018-09-27T22:51:15.755Z,100684.63
2018-09-27T22:53:43.430Z,100687.59
2018-09-27T22:56:11.118Z,100688.58
2018-09-27T22:58:38.834Z,100680.81
2018-09-27T23:01:06.550Z,100682.77
2018-09-27T23:03:34.228Z,100678.48
2018-09-27T23:06:01.933Z,100680.81
2018-09-27T23:08:29.755Z,100679.02
2018-09-27T23:10:57.824Z,100687.64
2018-09-27T23:13:25.541Z,100679.41
2018-09-27T23:15:53.297Z,100678.09
2018-09-27T23:18:21.010Z,100679.17
2018-09-27T23:20:48.706Z,100681.31
2018-09-27T23:23:16.381Z,100674.08
2018-09-27T23:25:44.109Z,100674.22
2018-09-27T23:28:12.102Z,100673.52
2018-09-27T23:30:39.819Z,100667.81
2018-09-27T23:33:07.658Z,100662.58
2018-09-27T23:35:35.365Z,100660.73
2018-09-27T23:38:03.093Z,100655.44
2018-09-27T23:40:30.795Z,100656.42
2018-09-27T23:42:58.489Z,100652.88
2018-09-27T23:45:26.524Z,100647.81
2018-09-27T23:47:54.217Z,100637.14
2018-09-27T23:50:22.229Z,100632.77
2018-09-27T23:52:49.950Z,100625.59
2018-09-27T23:55:17.653Z,100623.77
2018-09-27T23:57:45.393Z,100625.34
